createdAt,value
2022-12-01T00:01:10.724Z,5.70
2022-12-01T00:06:20.753Z,4.83
2022-12-01T00:11:23.801Z,5.31
2022-12-01T00:16:26.886Z,8.17
2022-12-01T00:21:30.233Z,8.79
2022-12-01T00:26:33.232Z,6.83
2022-12-01T00:31:36.770Z,5.49
2022-12-01T00:36:39.844Z,5.58
2022-12-01T00:41:42.855Z,8.34
2022-12-01T00:46:45.867Z,8.99
2022-12-01T00:51:48.956Z,7.04
2022-12-01T00:56:51.947Z,5.79
2022-12-01T01:01:55.033Z,4.97
2022-12-01T01:06:58.159Z,4.38
2022-12-01T01:12:01.164Z,5.00
2022-12-01T01:17:04.250Z,8.01
2022-12-01T01:22:07.288Z,9.67
2022-12-01T01:27:10.358Z,8.44
2022-12-01T01:32:13.391Z,6.74
2022-12-01T01:37:16.399Z,5.75
2022-12-01T01:42:21.045Z,5.08
2022-12-01T01:47:40.923Z,5.37
2022-12-01T01:52:51.612Z,8.28
2022-12-01T01:57:54.709Z,9.41
2022-12-01T02:02:58.192Z,7.59
2022-12-01T02:08:04.135Z,6.04
2022-12-01T02:13:28.652Z,5.05
2022-12-01T02:18:57.514Z,4.34
2022-12-01T02:24:20.632Z,6.29
2022-12-01T02:29:51.428Z,8.70
2022-12-01T02:34:58.917Z,8.40
2022-12-01T02:40:38.037Z,6.34
2022-12-01T02:45:43.537Z,5.09
2022-12-01T02:50:47.083Z,6.78
2022-12-01T02:55:56.543Z,9.02
2022-12-01T03:01:19.109Z,8.07
2022-12-01T03:07:02.695Z,6.12
2022-12-01T03:12:34.574Z,4.93
2022-12-01T03:18:19.728Z,6.00
2022-12-01T03:23:27.904Z,8.64
2022-12-01T03:28:35.448Z,8.02
2022-12-01T03:33:59.565Z,6.11
2022-12-01T03:39:11.476Z,4.97
2022-12-01T03:44:32.110Z,5.18
2022-12-01T03:49:36.420Z,7.96
2022-12-01T03:54:39.526Z,8.37
2022-12-01T03:59:46.029Z,6.36
2022-12-01T04:04:49.074Z,5.07
2022-12-01T04:09:52.157Z,5.26
2022-12-01T04:15:05.530Z,7.93
2022-12-01T04:20:10.851Z,8.42
2022-12-01T04:25:13.933Z,6.37
2022-12-01T04:30:20.383Z,5.16
2022-12-01T04:35:23.854Z,5.11
2022-12-01T04:40:27.367Z,7.72
2022-12-01T04:45:30.362Z,9.04
2022-12-01T04:50:36.527Z,7.32
2022-12-01T04:55:39.561Z,5.72
2022-12-01T05:00:42.584Z,4.81
2022-12-01T05:05:45.615Z,5.69
2022-12-01T05:10:48.647Z,8.29
2022-12-01T05:15:54.719Z,8.35
2022-12-01T05:20:57.834Z,6.31
2022-12-01T05:26:04.097Z,5.12
2022-12-01T05:31:07.179Z,4.34
2022-12-01T05:36:10.290Z,4.78
2022-12-01T05:41:13.729Z,7.67
2022-12-01T05:46:16.927Z,9.02
2022-12-01T05:51:19.970Z,7.39
2022-12-01T05:56:22.966Z,5.80
2022-12-01T06:01:29.163Z,4.78
2022-12-01T06:06:33.300Z,4.56
2022-12-01T06:11:39.561Z,7.28
2022-12-01T06:16:42.645Z,8.79
2022-12-01T06:21:45.659Z,7.03
2022-12-01T06:26:48.766Z,5.51
2022-12-01T06:31:51.895Z,4.61
2022-12-01T06:36:54.903Z,4.95
2022-12-01T06:42:01.102Z,7.89
2022-12-01T06:47:04.187Z,8.53
2022-12-01T06:52:07.203Z,6.51
2022-12-01T06:57:10.217Z,5.24
2022-12-01T07:02:13.932Z,4.46
2022-12-01T07:07:17.071Z,4.87
2022-12-01T07:12:20.100Z,7.68
2022-12-01T07:17:23.158Z,8.77
2022-12-01T07:22:32.378Z,6.95
2022-12-01T07:27:36.172Z,5.52
2022-12-01T07:32:40.325Z,4.76
2022-12-01T07:37:46.624Z,6.87
2022-12-01T07:42:50.503Z,8.90
2022-12-01T07:47:54.436Z,7.63
2022-12-01T07:52:57.520Z,5.90
2022-12-01T07:58:01.037Z,4.92
2022-12-01T08:03:04.598Z,4.38
2022-12-01T08:08:07.766Z,6.46
2022-12-01T08:13:16.981Z,8.75
2022-12-01T08:18:20.410Z,8.01
2022-12-01T08:23:23.395Z,6.11
2022-12-01T08:28:29.882Z,4.98
2022-12-01T08:33:32.919Z,4.21
2022-12-01T08:38:35.997Z,4.75
2022-12-01T08:49:06.043Z,8.99
2022-12-01T08:54:15.117Z,7.18
2022-12-01T08:59:18.110Z,5.65
2022-12-01T09:04:26.531Z,4.78
2022-12-01T09:09:29.662Z,4.94
2022-12-01T09:14:39.253Z,7.74
2022-12-01T09:19:43.661Z,8.77
2022-12-01T09:24:46.686Z,6.82
2022-12-01T09:29:50.549Z,5.48
2022-12-01T09:34:53.893Z,4.57
2022-12-01T09:39:56.879Z,4.59
2022-12-01T09:45:02.885Z,7.37
2022-12-01T09:50:33.263Z,8.54
2022-12-01T09:55:36.479Z,6.48
2022-12-01T10:00:43.832Z,5.05
2022-12-01T10:11:39.484Z,4.44
2022-12-01T10:17:17.162Z,7.37
2022-12-01T10:22:36.479Z,8.81
2022-12-01T10:28:31.390Z,6.83
2022-12-01T10:33:58.657Z,5.19
2022-12-01T10:39:07.043Z,5.29
2022-12-01T10:44:10.539Z,8.09
2022-12-01T10:49:16.524Z,8.49
2022-12-01T10:54:21.758Z,6.43
2022-12-01T11:00:01.435Z,5.11
2022-12-01T11:05:26.941Z,5.68
2022-12-01T11:10:33.300Z,8.27
2022-12-01T11:15:49.160Z,8.21
2022-12-01T11:21:28.542Z,6.04
2022-12-01T11:26:34.728Z,4.56
2022-12-01T11:31:50.666Z,5.90
2022-12-01T11:37:01.537Z,8.30
2022-12-01T11:42:24.733Z,7.37
2022-12-01T11:47:28.404Z,5.36
2022-12-01T11:52:45.577Z,4.26
2022-12-01T11:57:53.664Z,4.50
2022-12-01T12:03:16.884Z,7.33
2022-12-01T12:08:55.106Z,7.58
2022-12-01T12:14:26.148Z,5.31
2022-12-01T12:20:10.585Z,3.96
2022-12-01T12:25:56.490Z,5.02
2022-12-01T12:31:20.490Z,7.85
2022-12-01T12:36:56.654Z,7.32
2022-12-01T12:42:04.082Z,5.24
2022-12-01T12:47:22.223Z,4.14
2022-12-01T12:52:50.180Z,4.38
2022-12-01T12:57:59.223Z,7.22
2022-12-01T13:03:45.633Z,7.51
2022-12-01T13:09:10.812Z,5.24
2022-12-01T13:15:00.689Z,3.97
2022-12-01T13:20:06.470Z,5.15
2022-12-01T13:25:15.576Z,7.57
2022-12-01T13:30:27.220Z,6.93
2022-12-01T13:35:37.959Z,4.97
2022-12-01T13:40:41.128Z,4.46
2022-12-01T13:45:44.751Z,6.92
2022-12-01T13:50:57.305Z,7.58
2022-12-01T13:56:03.073Z,5.56
2022-12-01T14:01:22.091Z,4.23
2022-12-01T14:06:31.724Z,3.32
2022-12-01T14:11:35.464Z,3.85
2022-12-01T14:17:01.107Z,6.66
2022-12-01T14:22:28.227Z,7.63
2022-12-01T14:27:43.919Z,5.53
2022-12-01T14:32:47.216Z,4.13
2022-12-01T14:37:50.819Z,4.35
2022-12-01T14:43:16.594Z,7.11
2022-12-01T14:48:28.324Z,7.21
2022-12-01T14:53:36.586Z,5.22
2022-12-01T14:58:50.428Z,4.02
2022-12-01T15:04:03.272Z,3.16
2022-12-01T15:14:47.343Z,6.93
2022-12-01T15:19:50.683Z,7.23
2022-12-01T15:24:53.949Z,5.16
2022-12-01T15:30:03.412Z,3.87
2022-12-01T15:35:15.535Z,3.08
2022-12-01T15:46:12.453Z,5.77
2022-12-01T15:51:41.925Z,7.78
2022-12-01T15:56:46.019Z,6.19
2022-12-01T16:01:49.026Z,4.54
2022-12-01T16:07:09.031Z,3.55
2022-12-01T16:12:18.339Z,3.91
2022-12-01T16:17:23.373Z,6.74
2022-12-01T16:22:26.451Z,7.12
2022-12-01T16:27:32.590Z,5.16
2022-12-01T16:32:41.397Z,3.94
2022-12-01T16:37:44.450Z,3.14
2022-12-01T16:42:50.053Z,2.66
2022-12-01T16:47:53.063Z,4.72
2022-12-01T16:52:59.034Z,7.19
2022-12-01T16:58:02.339Z,7.41
2022-12-01T17:03:07.226Z,5.37
2022-12-01T17:08:10.504Z,4.04
2022-12-01T17:13:14.053Z,3.30
2022-12-01T17:18:20.236Z,5.42
2022-12-01T17:23:23.218Z,7.32
2022-12-01T17:28:26.607Z,5.76
2022-12-01T17:33:29.734Z,4.18
2022-12-01T17:38:37.826Z,3.29
2022-12-01T17:43:41.744Z,3.14
2022-12-01T17:48:46.582Z,5.73
2022-12-01T17:53:49.886Z,7.30
2022-12-01T17:58:52.929Z,6.68
2022-12-01T18:03:59.089Z,4.82
2022-12-01T18:09:02.203Z,3.70
2022-12-01T18:14:05.235Z,3.01
2022-12-01T18:19:09.402Z,3.61
2022-12-01T18:24:12.409Z,6.40
2022-12-01T18:29:26.046Z,7.11
2022-12-01T18:34:32.192Z,5.09
2022-12-01T18:39:35.232Z,3.79
2022-12-01T18:44:39.117Z,3.07
2022-12-01T18:49:44.993Z,2.89
2022-12-01T18:54:48.349Z,5.51
2022-12-01T18:59:51.802Z,6.80
2022-12-01T19:04:54.800Z,4.95
2022-12-01T19:09:57.790Z,3.62
2022-12-01T19:15:00.771Z,2.79
2022-12-01T19:20:05.277Z,2.19
2022-12-01T19:25:11.448Z,2.80
2022-12-01T19:30:14.577Z,5.89
2022-12-01T19:35:17.905Z,7.20
2022-12-01T19:40:23.845Z,5.52
2022-12-01T19:45:28.943Z,4.08
2022-12-01T19:50:36.133Z,3.16
2022-12-01T19:55:39.278Z,2.53
2022-12-01T20:00:42.432Z,2.70
2022-12-01T20:05:45.479Z,5.61
2022-12-01T20:10:48.946Z,6.79
2022-12-01T20:15:51.914Z,4.97
2022-12-01T20:21:21.582Z,3.77
2022-12-01T20:26:30.796Z,2.98
2022-12-01T20:31:34.978Z,2.54
2022-12-01T20:36:38.819Z,4.48
2022-12-01T20:41:43.943Z,6.97
2022-12-01T20:46:47.625Z,6.94
2022-12-01T20:51:50.813Z,4.95
2022-12-01T20:56:53.847Z,3.75
2022-12-01T21:01:56.978Z,2.97
2022-12-01T21:07:00.449Z,2.34
2022-12-01T21:12:34.647Z,1.82
2022-12-01T21:17:53.148Z,2.60
2022-12-01T21:23:05.742Z,5.73
2022-12-01T21:28:21.663Z,5.82
2022-12-01T21:33:35.538Z,3.79
2022-12-01T21:38:38.527Z,2.64
2022-12-01T21:43:41.854Z,1.91
2022-12-01T21:48:48.099Z,1.37
2022-12-01T21:53:56.392Z,2.13
2022-12-01T21:59:13.664Z,5.27
2022-12-01T22:04:23.731Z,5.89
2022-12-01T22:09:32.967Z,3.89
2022-12-01T22:14:36.798Z,2.68
2022-12-01T22:19:44.977Z,1.95
2022-12-01T22:24:52.217Z,1.39
2022-12-01T22:30:07.640Z,2.68
2022-12-01T22:35:27.547Z,5.72
2022-12-01T22:40:40.800Z,6.13
2022-12-01T22:46:21.609Z,4.09
2022-12-01T22:51:37.750Z,2.77
2022-12-01T22:56:42.650Z,2.07
2022-12-01T23:01:58.746Z,1.63
2022-12-01T23:07:29.608Z,2.33
2022-12-01T23:12:35.269Z,5.50
2022-12-01T23:17:39.139Z,6.00
2022-12-01T23:22:41.979Z,4.05
2022-12-01T23:27:48.908Z,2.86
2022-12-01T23:33:09.712Z,2.11
2022-12-01T23:38:20.550Z,1.61
2022-12-01T23:43:28.096Z,1.18
2022-12-01T23:48:42.978Z,1.89
2022-12-01T23:53:47.025Z,5.11
2022-12-01T23:58:51.750Z,5.79
